sensor_id;sensor_type;location;lat;lon;timestamp;P1;durP1;ratioP1;P2;durP2;ratioP2
50213;SDS011;36103;54.176;12.070;2023-08-21T00:00:52;0.70;;;0.70;;
50213;SDS011;36103;54.176;12.070;2023-08-21T00:01:54;0.60;;;0.60;;
50213;SDS011;36103;54.176;12.070;2023-08-21T00:02:55;0.95;;;0.68;;
50213;SDS011;36103;54.176;12.070;2023-08-21T00:03:57;0.82;;;0.70;;
50213;SDS011;36103;54.176;12.070;2023-08-21T00:04:57;0.60;;;0.60;;
50213;SDS011;36103;54.176;12.070;2023-08-21T00:05:59;0.70;;;0.70;;
50213;SDS011;36103;54.176;12.070;2023-08-21T00:07:01;0.60;;;0.60;;
50213;SDS011;36103;54.176;12.070;2023-08-21T00:08:03;0.47;;;0.47;;
50213;SDS011;36103;54.176;12.070;2023-08-21T00:09:04;0.63;;;0.63;;
50213;SDS011;36103;54.176;12.070;2023-08-21T00:10:05;0.60;;;0.60;;
50213;SDS011;36103;54.176;12.070;2023-08-21T00:11:07;0.60;;;0.60;;
50213;SDS011;36103;54.176;12.070;2023-08-21T00:12:08;0.70;;;0.60;;
50213;SDS011;36103;54.176;12.070;2023-08-21T00:13:10;0.50;;;0.50;;
50213;SDS011;36103;54.176;12.070;2023-08-21T00:14:11;0.85;;;0.60;;
50213;SDS011;36103;54.176;12.070;2023-08-21T00:15:13;0.47;;;0.47;;
50213;SDS011;36103;54.176;12.070;2023-08-21T00:16:13;0.50;;;0.50;;
50213;SDS011;36103;54.176;12.070;2023-08-21T00:17:15;0.77;;;0.68;;
50213;SDS011;36103;54.176;12.070;2023-08-21T00:18:16;0.50;;;0.50;;
50213;SDS011;36103;54.176;12.070;2023-08-21T00:19:17;0.47;;;0.47;;
50213;SDS011;36103;54.176;12.070;2023-08-21T00:20:18;0.60;;;0.60;;
50213;SDS011;36103;54.176;12.070;2023-08-21T00:21:20;0.63;;;0.63;;
50213;SDS011;36103;54.176;12.070;2023-08-21T00:22:22;0.77;;;0.77;;
50213;SDS011;36103;54.176;12.070;2023-08-21T00:23:23;0.57;;;0.57;;
50213;SDS011;36103;54.176;12.070;2023-08-21T00:24:24;0.65;;;0.65;;
50213;SDS011;36103;54.176;12.070;2023-08-21T00:25:25;0.80;;;0.70;;
50213;SDS011;36103;54.176;12.070;2023-08-21T00:26:26;0.70;;;0.70;;
50213;SDS011;36103;54.176;12.070;2023-08-21T00:27:27;0.77;;;0.75;;
50213;SDS011;36103;54.176;12.070;2023-08-21T00:28:29;0.73;;;0.60;;
50213;SDS011;36103;54.176;12.070;2023-08-21T00:29:33;0.57;;;0.57;;
50213;SDS011;36103;54.176;12.070;2023-08-21T00:30:34;0.50;;;0.50;;
50213;SDS011;36103;54.176;12.070;2023-08-21T00:31:35;0.70;;;0.70;;
50213;SDS011;36103;54.176;12.070;2023-08-21T00:32:37;0.50;;;0.50;;
50213;SDS011;36103;54.176;12.070;2023-08-21T00:33:38;0.60;;;0.60;;
50213;SDS011;36103;54.176;12.070;2023-08-21T00:34:41;0.63;;;0.63;;
50213;SDS011;36103;54.176;12.070;2023-08-21T00:35:42;0.50;;;0.50;;
50213;SDS011;36103;54.176;12.070;2023-08-21T00:36:43;0.73;;;0.73;;
50213;SDS011;36103;54.176;12.070;2023-08-21T00:37:45;0.73;;;0.73;;
50213;SDS011;36103;54.176;12.070;2023-08-21T00:38:48;0.60;;;0.60;;
50213;SDS011;36103;54.176;12.070;2023-08-21T00:39:49;0.50;;;0.50;;
50213;SDS011;36103;54.176;12.070;2023-08-21T00:40:51;0.60;;;0.60;;
50213;SDS011;36103;54.176;12.070;2023-08-21T00:41:52;0.70;;;0.70;;
50213;SDS011;36103;54.176;12.070;2023-08-21T00:42:53;1.35;;;0.68;;
50213;SDS011;36103;54.176;12.070;2023-08-21T00:43:54;0.60;;;0.57;;
50213;SDS011;36103;54.176;12.070;2023-08-21T00:44:56;0.70;;;0.70;;
50213;SDS011;36103;54.176;12.070;2023-08-21T00:45:57;0.70;;;0.70;;
50213;SDS011;36103;54.176;12.070;2023-08-21T00:46:58;0.68;;;0.68;;
50213;SDS011;36103;54.176;12.070;2023-08-21T00:48:00;0.52;;;0.52;;
50213;SDS011;36103;54.176;12.070;2023-08-21T00:49:01;0.70;;;0.60;;
50213;SDS011;36103;54.176;12.070;2023-08-21T00:50:02;0.73;;;0.60;;
50213;SDS011;36103;54.176;12.070;2023-08-21T00:51:05;0.85;;;0.85;;
50213;SDS011;36103;54.176;12.070;2023-08-21T00:52:07;0.60;;;0.60;;
50213;SDS011;36103;54.176;12.070;2023-08-21T00:53:11;0.60;;;0.60;;
50213;SDS011;36103;54.176;12.070;2023-08-21T00:54:12;0.57;;;0.57;;
50213;SDS011;36103;54.176;12.070;2023-08-21T00:55:13;0.63;;;0.63;;
50213;SDS011;36103;54.176;12.070;2023-08-21T00:56:14;0.70;;;0.70;;
50213;SDS011;36103;54.176;12.070;2023-08-21T00:57:16;0.63;;;0.60;;
50213;SDS011;36103;54.176;12.070;2023-08-21T00:58:17;0.63;;;0.63;;
50213;SDS011;36103;54.176;12.070;2023-08-21T00:59:19;0.50;;;0.50;;
50213;SDS011;36103;54.176;12.070;2023-08-21T01:00:20;0.60;;;0.60;;
50213;SDS011;36103;54.176;12.070;2023-08-21T01:01:22;0.70;;;0.70;;
50213;SDS011;36103;54.176;12.070;2023-08-21T01:02:26;0.52;;;0.52;;
50213;SDS011;36103;54.176;12.070;2023-08-21T01:03:27;0.60;;;0.60;;
50213;SDS011;36103;54.176;12.070;2023-08-21T01:04:29;0.60;;;0.60;;
50213;SDS011;36103;54.176;12.070;2023-08-21T01:05:30;0.40;;;0.40;;
50213;SDS011;36103;54.176;12.070;2023-08-21T01:06:32;0.55;;;0.55;;
50213;SDS011;36103;54.176;12.070;2023-08-21T01:07:32;0.95;;;0.88;;
50213;SDS011;36103;54.176;12.070;2023-08-21T01:08:42;0.70;;;0.70;;
50213;SDS011;36103;54.176;12.070;2023-08-21T01:09:49;0.63;;;0.63;;
50213;SDS011;36103;54.176;12.070;2023-08-21T01:10:55;0.50;;;0.50;;
50213;SDS011;36103;54.176;12.070;2023-08-21T01:11:58;0.50;;;0.50;;
50213;SDS011;36103;54.176;12.070;2023-08-21T01:13:06;0.50;;;0.50;;
50213;SDS011;36103;54.176;12.070;2023-08-21T01:14:14;0.60;;;0.60;;
50213;SDS011;36103;54.176;12.070;2023-08-21T01:15:20;0.57;;;0.57;;
50213;SDS011;36103;54.176;12.070;2023-08-21T01:16:21;0.57;;;0.57;;
50213;SDS011;36103;54.176;12.070;2023-08-21T01:17:23;0.65;;;0.65;;
50213;SDS011;36103;54.176;12.070;2023-08-21T01:18:24;0.40;;;0.40;;
50213;SDS011;36103;54.176;12.070;2023-08-21T01:19:30;0.63;;;0.63;;
50213;SDS011;36103;54.176;12.070;2023-08-21T01:20:32;0.60;;;0.60;;
50213;SDS011;36103;54.176;12.070;2023-08-21T01:21:33;0.63;;;0.63;;
50213;SDS011;36103;54.176;12.070;2023-08-21T01:22:35;0.55;;;0.50;;
50213;SDS011;36103;54.176;12.070;2023-08-21T01:23:40;0.60;;;0.60;;
50213;SDS011;36103;54.176;12.070;2023-08-21T01:24:42;0.68;;;0.65;;
50213;SDS011;36103;54.176;12.070;2023-08-21T01:25:43;0.55;;;0.55;;
50213;SDS011;36103;54.176;12.070;2023-08-21T01:26:44;0.68;;;0.60;;
50213;SDS011;36103;54.176;12.070;2023-08-21T01:27:46;0.60;;;0.60;;
50213;SDS011;36103;54.176;12.070;2023-08-21T01:28:48;0.60;;;0.60;;
50213;SDS011;36103;54.176;12.070;2023-08-21T01:29:50;0.60;;;0.60;;
50213;SDS011;36103;54.176;12.070;2023-08-21T01:30:51;0.50;;;0.50;;
50213;SDS011;36103;54.176;12.070;2023-08-21T01:31:57;0.50;;;0.50;;
50213;SDS011;36103;54.176;12.070;2023-08-21T01:33:02;0.60;;;0.60;;
50213;SDS011;36103;54.176;12.070;2023-08-21T01:34:06;0.57;;;0.57;;
50213;SDS011;36103;54.176;12.070;2023-08-21T01:35:08;0.60;;;0.60;;
50213;SDS011;36103;54.176;12.070;2023-08-21T01:36:10;0.50;;;0.50;;
50213;SDS011;36103;54.176;12.070;2023-08-21T01:37:12;0.60;;;0.60;;
50213;SDS011;36103;54.176;12.070;2023-08-21T01:38:13;0.70;;;0.70;;
50213;SDS011;36103;54.176;12.070;2023-08-21T01:39:16;0.68;;;0.68;;
50213;SDS011;36103;54.176;12.070;2023-08-21T01:40:19;0.60;;;0.60;;
50213;SDS011;36103;54.176;12.070;2023-08-21T01:41:22;0.55;;;0.55;;
50213;SDS011;36103;54.176;12.070;2023-08-21T01:42:24;0.50;;;0.50;;
50213;SDS011;36103;54.176;12.070;2023-08-21T01:43:25;0.52;;;0.50;;
50213;SDS011;36103;54.176;12.070;2023-08-21T01:44:27;0.60;;;0.60;;
50213;SDS011;36103;54.176;12.070;2023-08-21T01:45:27;0.60;;;0.60;;
50213;SDS011;36103;54.176;12.070;2023-08-21T01:46:29;0.88;;;0.50;;
50213;SDS011;36103;54.176;12.070;2023-08-21T01:47:30;0.70;;;0.70;;
50213;SDS011;36103;54.176;12.070;2023-08-21T01:48:31;0.60;;;0.60;;
50213;SDS011;36103;54.176;12.070;2023-08-21T01:49:32;0.50;;;0.50;;
50213;SDS011;36103;54.176;12.070;2023-08-21T01:50:34;0.63;;;0.60;;
50213;SDS011;36103;54.176;12.070;2023-08-21T01:51:34;0.50;;;0.50;;
50213;SDS011;36103;54.176;12.070;2023-08-21T01:52:36;0.60;;;0.60;;
50213;SDS011;36103;54.176;12.070;2023-08-21T01:53:37;0.65;;;0.60;;
50213;SDS011;36103;54.176;12.070;2023-08-21T01:54:40;0.63;;;0.63;;
50213;SDS011;36103;54.176;12.070;2023-08-21T01:55:42;0.60;;;0.60;;
50213;SDS011;36103;54.176;12.070;2023-08-21T01:56:43;0.43;;;0.43;;
50213;SDS011;36103;54.176;12.070;2023-08-21T01:57:44;0.60;;;0.60;;
50213;SDS011;36103;54.176;12.070;2023-08-21T01:58:47;0.85;;;0.70;;
50213;SDS011;36103;54.176;12.070;2023-08-21T01:59:47;0.60;;;0.60;;
50213;SDS011;36103;54.176;12.070;2023-08-21T02:00:49;0.60;;;0.60;;
50213;SDS011;36103;54.176;12.070;2023-08-21T02:01:49;0.65;;;0.65;;
50213;SDS011;36103;54.176;12.070;2023-08-21T02:02:51;0.50;;;0.50;;
50213;SDS011;36103;54.176;12.070;2023-08-21T02:03:52;0.60;;;0.60;;
50213;SDS011;36103;54.176;12.070;2023-08-21T02:04:54;0.50;;;0.50;;
50213;SDS011;36103;54.176;12.070;2023-08-21T02:05:55;0.85;;;0.70;;
50213;SDS011;36103;54.176;12.070;2023-08-21T02:06:58;0.50;;;0.50;;
50213;SDS011;36103;54.176;12.070;2023-08-21T02:07:58;0.77;;;0.50;;
50213;SDS011;36103;54.176;12.070;2023-08-21T02:09:00;0.63;;;0.63;;
50213;SDS011;36103;54.176;12.070;2023-08-21T02:10:02;0.68;;;0.60;;
50213;SDS011;36103;54.176;12.070;2023-08-21T02:11:04;1.85;;;0.60;;
50213;SDS011;36103;54.176;12.070;2023-08-21T02:12:05;0.52;;;0.52;;
50213;SDS011;36103;54.176;12.070;2023-08-21T02:13:06;0.60;;;0.60;;
50213;SDS011;36103;54.176;12.070;2023-08-21T02:14:07;0.50;;;0.50;;
50213;SDS011;36103;54.176;12.070;2023-08-21T02:15:09;0.60;;;0.60;;
50213;SDS011;36103;54.176;12.070;2023-08-21T02:16:11;0.55;;;0.55;;
50213;SDS011;36103;54.176;12.070;2023-08-21T02:17:12;0.60;;;0.60;;
50213;SDS011;36103;54.176;12.070;2023-08-21T02:18:14;0.40;;;0.40;;
50213;SDS011;36103;54.176;12.070;2023-08-21T02:19:14;1.00;;;0.60;;
50213;SDS011;36103;54.176;12.070;2023-08-21T02:20:17;0.68;;;0.68;;
50213;SDS011;36103;54.176;12.070;2023-08-21T02:21:19;0.63;;;0.60;;
50213;SDS011;36103;54.176;12.070;2023-08-21T02:22:22;0.90;;;0.60;;
50213;SDS011;36103;54.176;12.070;2023-08-21T02:23:22;0.50;;;0.50;;
50213;SDS011;36103;54.176;12.070;2023-08-21T02:24:25;0.50;;;0.50;;
50213;SDS011;36103;54.176;12.070;2023-08-21T02:25:27;0.50;;;0.50;;
50213;SDS011;36103;54.176;12.070;2023-08-21T02:26:28;0.60;;;0.60;;
50213;SDS011;36103;54.176;12.070;2023-08-21T02:27:30;0.63;;;0.63;;
50213;SDS011;36103;54.176;12.070;2023-08-21T02:28:31;0.60;;;0.60;;
50213;SDS011;36103;54.176;12.070;2023-08-21T02:29:32;0.47;;;0.47;;
50213;SDS011;36103;54.176;12.070;2023-08-21T02:30:39;0.47;;;0.47;;
50213;SDS011;36103;54.176;12.070;2023-08-21T02:31:40;0.60;;;0.60;;
50213;SDS011;36103;54.176;12.070;2023-08-21T02:32:43;0.50;;;0.50;;
50213;SDS011;36103;54.176;12.070;2023-08-21T02:33:44;0.55;;;0.55;;
50213;SDS011;36103;54.176;12.070;2023-08-21T02:34:46;0.50;;;0.50;;
50213;SDS011;36103;54.176;12.070;2023-08-21T02:35:49;0.40;;;0.40;;
50213;SDS011;36103;54.176;12.070;2023-08-21T02:36:51;0.70;;;0.60;;
50213;SDS011;36103;54.176;12.070;2023-08-21T02:37:53;0.60;;;0.60;;
50213;SDS011;36103;54.176;12.070;2023-08-21T02:38:55;0.50;;;0.50;;
50213;SDS011;36103;54.176;12.070;2023-08-21T02:39:56;0.45;;;0.45;;
50213;SDS011;36103;54.176;12.070;2023-08-21T02:41:01;0.60;;;0.60;;
50213;SDS011;36103;54.176;12.070;2023-08-21T02:42:02;0.70;;;0.70;;
50213;SDS011;36103;54.176;12.070;2023-08-21T02:43:04;0.40;;;0.40;;
50213;SDS011;36103;54.176;12.070;2023-08-21T02:44:04;0.70;;;0.70;;
50213;SDS011;36103;54.176;12.070;2023-08-21T02:45:06;0.57;;;0.57;;
50213;SDS011;36103;54.176;12.070;2023-08-21T02:46:08;0.50;;;0.50;;
50213;SDS011;36103;54.176;12.070;2023-08-21T02:47:10;0.55;;;0.55;;
50213;SDS011;36103;54.176;12.070;2023-08-21T02:48:10;0.80;;;0.80;;
50213;SDS011;36103;54.176;12.070;2023-08-21T02:49:12;0.60;;;0.60;;
50213;SDS011;36103;54.176;12.070;2023-08-21T02:50:13;0.70;;;0.70;;
50213;SDS011;36103;54.176;12.070;2023-08-21T02:51:15;0.50;;;0.50;;
50213;SDS011;36103;54.176;12.070;2023-08-21T02:52:16;0.70;;;0.70;;
50213;SDS011;36103;54.176;12.070;2023-08-21T02:53:17;0.60;;;0.60;;
50213;SDS011;36103;54.176;12.070;2023-08-21T02:54:19;0.50;;;0.50;;
50213;SDS011;36103;54.176;12.070;2023-08-21T02:55:19;0.50;;;0.50;;
50213;SDS011;36103;54.176;12.070;2023-08-21T02:56:23;0.65;;;0.65;;
50213;SDS011;36103;54.176;12.070;2023-08-21T02:57:24;0.60;;;0.60;;
50213;SDS011;36103;54.176;12.070;2023-08-21T02:58:25;0.60;;;0.60;;
50213;SDS011;36103;54.176;12.070;2023-08-21T02:59:26;0.50;;;0.50;;
50213;SDS011;36103;54.176;12.070;2023-08-21T03:00:28;0.80;;;0.80;;
50213;SDS011;36103;54.176;12.070;2023-08-21T03:01:29;0.50;;;0.50;;
50213;SDS011;36103;54.176;12.070;2023-08-21T03:02:30;0.65;;;0.65;;
50213;SDS011;36103;54.176;12.070;2023-08-21T03:03:32;0.55;;;0.55;;
50213;SDS011;36103;54.176;12.070;2023-08-21T03:04:34;0.60;;;0.60;;
50213;SDS011;36103;54.176;12.070;2023-08-21T03:05:34;0.60;;;0.60;;
50213;SDS011;36103;54.176;12.070;2023-08-21T03:06:36;0.70;;;0.70;;
50213;SDS011;36103;54.176;12.070;2023-08-21T03:07:37;0.70;;;0.70;;
50213;SDS011;36103;54.176;12.070;2023-08-21T03:08:39;0.68;;;0.50;;
50213;SDS011;36103;54.176;12.070;2023-08-21T03:09:40;0.50;;;0.50;;
50213;SDS011;36103;54.176;12.070;2023-08-21T03:10:42;0.52;;;0.52;;
50213;SDS011;36103;54.176;12.070;2023-08-21T03:11:44;0.68;;;0.68;;
50213;SDS011;36103;54.176;12.070;2023-08-21T03:12:45;1.27;;;0.77;;
50213;SDS011;36103;54.176;12.070;2023-08-21T03:13:46;0.70;;;0.70;;
50213;SDS011;36103;54.176;12.070;2023-08-21T03:14:47;0.50;;;0.50;;
50213;SDS011;36103;54.176;12.070;2023-08-21T03:15:49;0.52;;;0.52;;
50213;SDS011;36103;54.176;12.070;2023-08-21T03:16:49;0.55;;;0.55;;
50213;SDS011;36103;54.176;12.070;2023-08-21T03:17:51;0.68;;;0.68;;
50213;SDS011;36103;54.176;12.070;2023-08-21T03:18:56;0.50;;;0.50;;
50213;SDS011;36103;54.176;12.070;2023-08-21T03:20:00;0.77;;;0.63;;
50213;SDS011;36103;54.176;12.070;2023-08-21T03:21:00;0.50;;;0.50;;
50213;SDS011;36103;54.176;12.070;2023-08-21T03:22:02;0.70;;;0.70;;
50213;SDS011;36103;54.176;12.070;2023-08-21T03:23:03;0.60;;;0.60;;
50213;SDS011;36103;54.176;12.070;2023-08-21T03:24:05;0.60;;;0.60;;
50213;SDS011;36103;54.176;12.070;2023-08-21T03:25:07;0.60;;;0.60;;
50213;SDS011;36103;54.176;12.070;2023-08-21T03:26:09;0.60;;;0.60;;
50213;SDS011;36103;54.176;12.070;2023-08-21T03:27:11;0.60;;;0.60;;
50213;SDS011;36103;54.176;12.070;2023-08-21T03:28:12;0.55;;;0.55;;
50213;SDS011;36103;54.176;12.070;2023-08-21T03:29:13;0.60;;;0.60;;
50213;SDS011;36103;54.176;12.070;2023-08-21T03:30:15;0.60;;;0.60;;
50213;SDS011;36103;54.176;12.070;2023-08-21T03:31:17;0.50;;;0.50;;
50213;SDS011;36103;54.176;12.070;2023-08-21T03:32:18;0.77;;;0.70;;
50213;SDS011;36103;54.176;12.070;2023-08-21T03:33:19;0.60;;;0.60;;
50213;SDS011;36103;54.176;12.070;2023-08-21T03:34:21;0.70;;;0.70;;
50213;SDS011;36103;54.176;12.070;2023-08-21T03:35:23;0.52;;;0.52;;
50213;SDS011;36103;54.176;12.070;2023-08-21T03:36:25;0.68;;;0.68;;
50213;SDS011;36103;54.176;12.070;2023-08-21T03:37:32;1.25;;;0.80;;
50213;SDS011;36103;54.176;12.070;2023-08-21T03:38:34;0.60;;;0.60;;
50213;SDS011;36103;54.176;12.070;2023-08-21T03:39:35;0.50;;;0.50;;
50213;SDS011;36103;54.176;12.070;2023-08-21T03:40:37;0.57;;;0.57;;
50213;SDS011;36103;54.176;12.070;2023-08-21T03:41:39;0.40;;;0.40;;
50213;SDS011;36103;54.176;12.070;2023-08-21T03:42:42;0.60;;;0.60;;
50213;SDS011;36103;54.176;12.070;2023-08-21T03:43:44;0.50;;;0.50;;
50213;SDS011;36103;54.176;12.070;2023-08-21T03:44:45;0.52;;;0.52;;
50213;SDS011;36103;54.176;12.070;2023-08-21T03:45:48;0.60;;;0.60;;
50213;SDS011;36103;54.176;12.070;2023-08-21T03:46:52;0.50;;;0.50;;
50213;SDS011;36103;54.176;12.070;2023-08-21T03:47:53;0.63;;;0.63;;
50213;SDS011;36103;54.176;12.070;2023-08-21T03:48:54;0.60;;;0.60;;
50213;SDS011;36103;54.176;12.070;2023-08-21T03:49:55;0.55;;;0.52;;
50213;SDS011;36103;54.176;12.070;2023-08-21T03:50:59;0.60;;;0.60;;
50213;SDS011;36103;54.176;12.070;2023-08-21T03:51:59;0.55;;;0.55;;
50213;SDS011;36103;54.176;12.070;2023-08-21T03:53:02;0.60;;;0.60;;
50213;SDS011;36103;54.176;12.070;2023-08-21T03:54:03;0.55;;;0.55;;
50213;SDS011;36103;54.176;12.070;2023-08-21T03:55:06;0.60;;;0.60;;
50213;SDS011;36103;54.176;12.070;2023-08-21T03:56:07;0.75;;;0.68;;
50213;SDS011;36103;54.176;12.070;2023-08-21T03:57:09;0.70;;;0.70;;
50213;SDS011;36103;54.176;12.070;2023-08-21T03:58:13;0.70;;;0.70;;
50213;SDS011;36103;54.176;12.070;2023-08-21T03:59:15;0.70;;;0.70;;
50213;SDS011;36103;54.176;12.070;2023-08-21T04:00:16;1.95;;;0.70;;
50213;SDS011;36103;54.176;12.070;2023-08-21T04:01:20;0.70;;;0.60;;
50213;SDS011;36103;54.176;12.070;2023-08-21T04:02:21;0.90;;;0.77;;
50213;SDS011;36103;54.176;12.070;2023-08-21T04:03:23;0.50;;;0.50;;
50213;SDS011;36103;54.176;12.070;2023-08-21T04:04:24;0.85;;;0.50;;
50213;SDS011;36103;54.176;12.070;2023-08-21T04:05:26;0.60;;;0.60;;
50213;SDS011;36103;54.176;12.070;2023-08-21T04:06:27;0.47;;;0.47;;
50213;SDS011;36103;54.176;12.070;2023-08-21T04:07:29;0.70;;;0.60;;
50213;SDS011;36103;54.176;12.070;2023-08-21T04:08:30;0.40;;;0.40;;
50213;SDS011;36103;54.176;12.070;2023-08-21T04:09:31;0.63;;;0.63;;
50213;SDS011;36103;54.176;12.070;2023-08-21T04:10:33;0.60;;;0.60;;
50213;SDS011;36103;54.176;12.070;2023-08-21T04:11:34;0.60;;;0.60;;
50213;SDS011;36103;54.176;12.070;2023-08-21T04:12:36;0.57;;;0.57;;
50213;SDS011;36103;54.176;12.070;2023-08-21T04:13:39;0.63;;;0.63;;
50213;SDS011;36103;54.176;12.070;2023-08-21T04:14:41;0.70;;;0.70;;
50213;SDS011;36103;54.176;12.070;2023-08-21T04:15:44;0.70;;;0.63;;
50213;SDS011;36103;54.176;12.070;2023-08-21T04:16:46;0.65;;;0.65;;
50213;SDS011;36103;54.176;12.070;2023-08-21T04:17:47;0.68;;;0.60;;
50213;SDS011;36103;54.176;12.070;2023-08-21T04:18:48;1.05;;;0.60;;
50213;SDS011;36103;54.176;12.070;2023-08-21T04:19:49;1.23;;;0.70;;
50213;SDS011;36103;54.176;12.070;2023-08-21T04:20:51;0.50;;;0.50;;
50213;SDS011;36103;54.176;12.070;2023-08-21T04:21:53;0.60;;;0.60;;
50213;SDS011;36103;54.176;12.070;2023-08-21T04:22:54;0.60;;;0.60;;
50213;SDS011;36103;54.176;12.070;2023-08-21T04:23:56;0.40;;;0.40;;
50213;SDS011;36103;54.176;12.070;2023-08-21T04:24:57;0.40;;;0.40;;
50213;SDS011;36103;54.176;12.070;2023-08-21T04:26:00;0.60;;;0.60;;
50213;SDS011;36103;54.176;12.070;2023-08-21T04:27:02;0.80;;;0.80;;
50213;SDS011;36103;54.176;12.070;2023-08-21T04:28:04;0.50;;;0.50;;
50213;SDS011;36103;54.176;12.070;2023-08-21T04:29:07;0.80;;;0.70;;
50213;SDS011;36103;54.176;12.070;2023-08-21T04:30:11;1.17;;;0.68;;
50213;SDS011;36103;54.176;12.070;2023-08-21T04:31:12;1.13;;;1.02;;
50213;SDS011;36103;54.176;12.070;2023-08-21T04:32:16;1.27;;;1.02;;
50213;SDS011;36103;54.176;12.070;2023-08-21T04:33:17;1.65;;;0.80;;
50213;SDS011;36103;54.176;12.070;2023-08-21T04:34:19;2.83;;;1.20;;
50213;SDS011;36103;54.176;12.070;2023-08-21T04:35:20;0.60;;;0.60;;
50213;SDS011;36103;54.176;12.070;2023-08-21T04:36:22;1.92;;;1.00;;
50213;SDS011;36103;54.176;12.070;2023-08-21T04:37:24;0.95;;;0.80;;
50213;SDS011;36103;54.176;12.070;2023-08-21T04:38:27;0.80;;;0.80;;
50213;SDS011;36103;54.176;12.070;2023-08-21T04:39:28;1.27;;;0.90;;
50213;SDS011;36103;54.176;12.070;2023-08-21T04:40:29;1.52;;;0.93;;
50213;SDS011;36103;54.176;12.070;2023-08-21T04:41:31;1.52;;;1.05;;
50213;SDS011;36103;54.176;12.070;2023-08-21T04:42:33;2.55;;;1.27;;
50213;SDS011;36103;54.176;12.070;2023-08-21T04:43:34;2.15;;;1.30;;
50213;SDS011;36103;54.176;12.070;2023-08-21T04:44:37;1.70;;;1.13;;
50213;SDS011;36103;54.176;12.070;2023-08-21T04:45:46;2.33;;;1.20;;
50213;SDS011;36103;54.176;12.070;2023-08-21T04:46:49;3.15;;;1.15;;
50213;SDS011;36103;54.176;12.070;2023-08-21T04:47:51;3.42;;;1.55;;
50213;SDS011;36103;54.176;12.070;2023-08-21T04:48:53;1.77;;;1.10;;
50213;SDS011;36103;54.176;12.070;2023-08-21T04:49:55;1.80;;;1.10;;
50213;SDS011;36103;54.176;12.070;2023-08-21T04:50:56;1.73;;;1.08;;
50213;SDS011;36103;54.176;12.070;2023-08-21T04:51:57;2.70;;;1.10;;
50213;SDS011;36103;54.176;12.070;2023-08-21T04:53:00;3.08;;;1.08;;
50213;SDS011;36103;54.176;12.070;2023-08-21T04:54:01;2.85;;;1.20;;
50213;SDS011;36103;54.176;12.070;2023-08-21T04:55:03;2.35;;;1.08;;
50213;SDS011;36103;54.176;12.070;2023-08-21T04:56:07;3.25;;;1.17;;
50213;SDS011;36103;54.176;12.070;2023-08-21T04:57:09;1.48;;;0.95;;
50213;SDS011;36103;54.176;12.070;2023-08-21T04:58:11;2.03;;;1.00;;
50213;SDS011;36103;54.176;12.070;2023-08-21T04:59:14;2.40;;;1.10;;
50213;SDS011;36103;54.176;12.070;2023-08-21T05:00:17;1.67;;;0.80;;
50213;SDS011;36103;54.176;12.070;2023-08-21T05:01:19;1.38;;;0.80;;
50213;SDS011;36103;54.176;12.070;2023-08-21T05:02:22;2.00;;;1.00;;
50213;SDS011;36103;54.176;12.070;2023-08-21T05:03:26;0.70;;;0.70;;
50213;SDS011;36103;54.176;12.070;2023-08-21T05:04:27;2.58;;;1.10;;
50213;SDS011;36103;54.176;12.070;2023-08-21T05:05:29;3.42;;;1.25;;
50213;SDS011;36103;54.176;12.070;2023-08-21T05:06:30;1.98;;;0.95;;
50213;SDS011;36103;54.176;12.070;2023-08-21T05:07:32;2.25;;;1.30;;
50213;SDS011;36103;54.176;12.070;2023-08-21T05:08:35;0.85;;;0.77;;
50213;SDS011;36103;54.176;12.070;2023-08-21T05:09:39;0.90;;;0.70;;
50213;SDS011;36103;54.176;12.070;2023-08-21T05:10:42;2.07;;;0.90;;
50213;SDS011;36103;54.176;12.070;2023-08-21T05:11:44;4.85;;;1.48;;
50213;SDS011;36103;54.176;12.070;2023-08-21T05:12:47;2.85;;;1.10;;
50213;SDS011;36103;54.176;12.070;2023-08-21T05:13:49;2.47;;;1.00;;
50213;SDS011;36103;54.176;12.070;2023-08-21T05:14:52;3.30;;;1.30;;
50213;SDS011;36103;54.176;12.070;2023-08-21T05:15:56;2.05;;;1.30;;
50213;SDS011;36103;54.176;12.070;2023-08-21T05:17:01;2.90;;;1.35;;
50213;SDS011;36103;54.176;12.070;2023-08-21T05:18:04;1.77;;;1.17;;
50213;SDS011;36103;54.176;12.070;2023-08-21T05:19:06;2.00;;;1.08;;
50213;SDS011;36103;54.176;12.070;2023-08-21T05:20:08;3.92;;;1.45;;
50213;SDS011;36103;54.176;12.070;2023-08-21T05:21:10;3.20;;;1.70;;
50213;SDS011;36103;54.176;12.070;2023-08-21T05:22:12;2.25;;;0.90;;
50213;SDS011;36103;54.176;12.070;2023-08-21T05:23:13;1.52;;;1.30;;
50213;SDS011;36103;54.176;12.070;2023-08-21T05:24:16;1.15;;;0.93;;
50213;SDS011;36103;54.176;12.070;2023-08-21T05:25:23;1.65;;;1.27;;
50213;SDS011;36103;54.176;12.070;2023-08-21T05:26:25;3.42;;;1.40;;
50213;SDS011;36103;54.176;12.070;2023-08-21T05:27:26;1.05;;;0.80;;
50213;SDS011;36103;54.176;12.070;2023-08-21T05:28:28;1.88;;;1.00;;
50213;SDS011;36103;54.176;12.070;2023-08-21T05:29:29;1.77;;;0.85;;
50213;SDS011;36103;54.176;12.070;2023-08-21T05:30:32;4.68;;;1.63;;
50213;SDS011;36103;54.176;12.070;2023-08-21T05:31:37;3.35;;;1.23;;
50213;SDS011;36103;54.176;12.070;2023-08-21T05:32:40;1.35;;;0.90;;
50213;SDS011;36103;54.176;12.070;2023-08-21T05:33:41;1.67;;;1.23;;
50213;SDS011;36103;54.176;12.070;2023-08-21T05:34:43;0.80;;;0.80;;
50213;SDS011;36103;54.176;12.070;2023-08-21T05:35:45;3.23;;;1.50;;
50213;SDS011;36103;54.176;12.070;2023-08-21T05:36:47;3.33;;;1.45;;
50213;SDS011;36103;54.176;12.070;2023-08-21T05:37:48;2.60;;;0.90;;
50213;SDS011;36103;54.176;12.070;2023-08-21T05:38:51;2.40;;;1.03;;
50213;SDS011;36103;54.176;12.070;2023-08-21T05:39:52;2.63;;;1.13;;
50213;SDS011;36103;54.176;12.070;2023-08-21T05:40:54;1.33;;;1.10;;
50213;SDS011;36103;54.176;12.070;2023-08-21T05:41:55;2.13;;;0.90;;
50213;SDS011;36103;54.176;12.070;2023-08-21T05:42:58;2.55;;;1.20;;
50213;SDS011;36103;54.176;12.070;2023-08-21T05:44:01;2.20;;;1.27;;
50213;SDS011;36103;54.176;12.070;2023-08-21T05:45:03;2.17;;;0.90;;
50213;SDS011;36103;54.176;12.070;2023-08-21T05:46:07;3.15;;;1.27;;
50213;SDS011;36103;54.176;12.070;2023-08-21T05:47:13;3.67;;;1.60;;
50213;SDS011;36103;54.176;12.070;2023-08-21T05:48:13;4.10;;;1.67;;
50213;SDS011;36103;54.176;12.070;2023-08-21T05:49:17;1.13;;;0.93;;
50213;SDS011;36103;54.176;12.070;2023-08-21T05:50:18;1.92;;;1.00;;
50213;SDS011;36103;54.176;12.070;2023-08-21T05:51:20;2.83;;;1.42;;
50213;SDS011;36103;54.176;12.070;2023-08-21T05:52:21;1.48;;;1.13;;
50213;SDS011;36103;54.176;12.070;2023-08-21T05:53:23;1.55;;;1.00;;
50213;SDS011;36103;54.176;12.070;2023-08-21T05:54:26;1.60;;;1.08;;
50213;SDS011;36103;54.176;12.070;2023-08-21T05:55:29;2.53;;;1.20;;
50213;SDS011;36103;54.176;12.070;2023-08-21T05:56:30;1.45;;;1.00;;
50213;SDS011;36103;54.176;12.070;2023-08-21T05:57:32;2.03;;;1.00;;
50213;SDS011;36103;54.176;12.070;2023-08-21T05:58:33;2.80;;;1.33;;
50213;SDS011;36103;54.176;12.070;2023-08-21T05:59:37;2.00;;;1.23;;
50213;SDS011;36103;54.176;12.070;2023-08-21T06:00:44;1.58;;;0.93;;
50213;SDS011;36103;54.176;12.070;2023-08-21T06:01:48;3.03;;;1.30;;
50213;SDS011;36103;54.176;12.070;2023-08-21T06:02:50;2.05;;;1.20;;
50213;SDS011;36103;54.176;12.070;2023-08-21T06:04:15;1.60;;;0.90;;
50213;SDS011;36103;54.176;12.070;2023-08-21T06:05:28;2.00;;;0.88;;
50213;SDS011;36103;54.176;12.070;2023-08-21T06:06:29;1.33;;;1.02;;
50213;SDS011;36103;54.176;12.070;2023-08-21T06:07:34;1.73;;;0.85;;
50213;SDS011;36103;54.176;12.070;2023-08-21T06:08:35;1.25;;;0.80;;